DAVRO EKCH-EDDH
Flight info
| Callsign | DAVRO |
|---|---|
| Flight time | N/A |
| Altitude | 27000 |
| Route | NEXEN T503 MICOS N850 BOGMU |
| Aircraft | RJ85/M-V/N |
Departure
| Time | 2026-05-06 14:08 |
|---|---|
| Airport | Copenhagen Kastrup Airport (EKCH) |
Arrival
| Time | N/A |
|---|---|
| Airport | Hamburg Helmut Schmidt Airport (EDDH) |
| Time | Latitude | Longitude | Altitude | Speed | Heading |
|---|---|---|---|---|---|
| 2026-05-06 13:51 | 55.62659 | 12.64907 | 25 ft | 0 kts | 101° |
| 2026-05-06 14:00 | 55.62660 | 12.64893 | 25 ft | 3 kts | 102° |
| 2026-05-06 14:01 | 55.62665 | 12.64859 | 25 ft | 3 kts | 108° |
| 2026-05-06 14:01 | 55.62673 | 12.64826 | 25 ft | 3 kts | 120° |
| 2026-05-06 14:01 | 55.62686 | 12.64802 | 25 ft | 3 kts | 154° |
| 2026-05-06 14:01 | 55.62698 | 12.64800 | 25 ft | 1 kts | 190° |
| 2026-05-06 14:02 | 55.62702 | 12.64801 | 25 ft | 0 kts | 190° |
| 2026-05-06 14:03 | 55.62691 | 12.64797 | 25 ft | 5 kts | 191° |
| 2026-05-06 14:03 | 55.62629 | 12.64776 | 25 ft | 13 kts | 191° |
| 2026-05-06 14:03 | 55.62526 | 12.64769 | 25 ft | 18 kts | 178° |
| 2026-05-06 14:03 | 55.62385 | 12.64781 | 25 ft | 22 kts | 177° |
| 2026-05-06 14:04 | 55.62245 | 12.64791 | 25 ft | 13 kts | 188° |
| 2026-05-06 14:04 | 55.62168 | 12.64717 | 25 ft | 14 kts | 213° |
| 2026-05-06 14:04 | 55.62072 | 12.64608 | 25 ft | 17 kts | 212° |
| 2026-05-06 14:04 | 55.61947 | 12.64498 | 25 ft | 23 kts | 185° |
| 2026-05-06 14:05 | 55.61782 | 12.64549 | 25 ft | 26 kts | 168° |
| 2026-05-06 14:05 | 55.61657 | 12.64547 | 25 ft | 15 kts | 212° |
| 2026-05-06 14:05 | 55.61537 | 12.64407 | 25 ft | 27 kts | 212° |
| 2026-05-06 14:05 | 55.61365 | 12.64219 | 25 ft | 21 kts | 217° |
| 2026-05-06 14:06 | 55.61248 | 12.64100 | 25 ft | 18 kts | 173° |
| 2026-05-06 14:06 | 55.61181 | 12.64237 | 25 ft | 16 kts | 84° |
| 2026-05-06 14:06 | 55.61215 | 12.64416 | 25 ft | 15 kts | 70° |
| 2026-05-06 14:06 | 55.61251 | 12.64594 | 25 ft | 15 kts | 70° |
| 2026-05-06 14:07 | 55.61267 | 12.64758 | 25 ft | 9 kts | 85° |
| 2026-05-06 14:07 | 55.61347 | 12.64912 | 25 ft | 48 kts | 43° |
| 2026-05-06 14:07 | 55.61619 | 12.65333 | 25 ft | 107 kts | 41° |
| 2026-05-06 14:08 | 55.65061 | 12.70936 | 3755 ft | 173 kts | 46° |
| 2026-05-06 14:08 | 55.65864 | 12.72590 | 4733 ft | 181 kts | 51° |
| 2026-05-06 14:09 | 55.66516 | 12.74682 | 5279 ft | 214 kts | 73° |
| 2026-05-06 14:09 | 55.66467 | 12.77399 | 5936 ft | 234 kts | 105° |
| 2026-05-06 14:09 | 55.65606 | 12.79935 | 6518 ft | 252 kts | 134° |
| 2026-05-06 14:09 | 55.64149 | 12.81796 | 7067 ft | 266 kts | 157° |
| 2026-05-06 14:10 | 55.62330 | 12.82397 | 7600 ft | 269 kts | 184° |
| 2026-05-06 14:10 | 55.60564 | 12.81503 | 8356 ft | 265 kts | 208° |
| 2026-05-06 14:10 | 55.59005 | 12.79677 | 8912 ft | 274 kts | 220° |
| 2026-05-06 14:10 | 55.57526 | 12.77439 | 9339 ft | 290 kts | 224° |
| 2026-05-06 14:11 | 55.56017 | 12.74942 | 9775 ft | 306 kts | 225° |
| 2026-05-06 14:11 | 55.54445 | 12.72298 | 10365 ft | 316 kts | 225° |
| 2026-05-06 14:11 | 55.52827 | 12.69620 | 11130 ft | 322 kts | 224° |
| 2026-05-06 14:11 | 55.51159 | 12.66937 | 11918 ft | 325 kts | 223° |
| 2026-05-06 14:12 | 55.49451 | 12.64268 | 12680 ft | 329 kts | 223° |
| 2026-05-06 14:12 | 55.47713 | 12.61615 | 13413 ft | 333 kts | 222° |
| 2026-05-06 14:12 | 55.45942 | 12.58965 | 14142 ft | 335 kts | 221° |
| 2026-05-06 14:12 | 55.44140 | 12.56326 | 14859 ft | 337 kts | 221° |
| 2026-05-06 14:13 | 55.42320 | 12.53688 | 15541 ft | 339 kts | 221° |
| 2026-05-06 14:13 | 55.40489 | 12.51049 | 16206 ft | 341 kts | 221° |
| 2026-05-06 14:13 | 55.38669 | 12.48434 | 16843 ft | 343 kts | 221° |
| 2026-05-06 14:13 | 55.36815 | 12.45774 | 17470 ft | 345 kts | 221° |
| 2026-05-06 14:14 | 55.34951 | 12.43100 | 18071 ft | 346 kts | 221° |
| 2026-05-06 14:14 | 55.33079 | 12.40412 | 18654 ft | 348 kts | 220° |
| 2026-05-06 14:14 | 55.31204 | 12.37704 | 19208 ft | 350 kts | 220° |
| 2026-05-06 14:14 | 55.29325 | 12.34968 | 19738 ft | 351 kts | 220° |
| 2026-05-06 14:15 | 55.27447 | 12.32206 | 20237 ft | 353 kts | 220° |
| 2026-05-06 14:15 | 55.25567 | 12.29412 | 20701 ft | 356 kts | 220° |
| 2026-05-06 14:15 | 55.23649 | 12.26527 | 20872 ft | 367 kts | 220° |
| 2026-05-06 14:15 | 55.21696 | 12.23604 | 21235 ft | 371 kts | 220° |
| 2026-05-06 14:16 | 55.19726 | 12.20661 | 21714 ft | 371 kts | 219° |
| 2026-05-06 14:16 | 55.17774 | 12.17766 | 22142 ft | 373 kts | 219° |
| 2026-05-06 14:16 | 55.15783 | 12.14840 | 22519 ft | 375 kts | 219° |
| 2026-05-06 14:16 | 55.13769 | 12.11887 | 22895 ft | 377 kts | 219° |
| 2026-05-06 14:17 | 55.11753 | 12.08938 | 23254 ft | 379 kts | 218° |
| 2026-05-06 14:17 | 55.09712 | 12.05990 | 23610 ft | 381 kts | 218° |
| 2026-05-06 14:17 | 55.07654 | 12.03039 | 23982 ft | 382 kts | 218° |
| 2026-05-06 14:17 | 55.05590 | 12.00097 | 24337 ft | 383 kts | 218° |
| 2026-05-06 14:18 | 55.03521 | 11.97160 | 24688 ft | 384 kts | 218° |
| 2026-05-06 14:18 | 55.01441 | 11.94222 | 25026 ft | 385 kts | 218° |
| 2026-05-06 14:18 | 54.99358 | 11.91290 | 25352 ft | 386 kts | 218° |
| 2026-05-06 14:18 | 54.97294 | 11.88398 | 25669 ft | 386 kts | 218° |
| 2026-05-06 14:19 | 54.95165 | 11.85426 | 25953 ft | 388 kts | 218° |
| 2026-05-06 14:19 | 54.93084 | 11.82533 | 26226 ft | 389 kts | 218° |
| 2026-05-06 14:19 | 54.90962 | 11.79596 | 26497 ft | 390 kts | 218° |
| 2026-05-06 14:19 | 54.88743 | 11.76536 | 26708 ft | 393 kts | 218° |
| 2026-05-06 14:20 | 54.86682 | 11.73705 | 26842 ft | 395 kts | 218° |
| 2026-05-06 14:20 | 54.84522 | 11.70746 | 26912 ft | 396 kts | 218° |
| 2026-05-06 14:20 | 54.82362 | 11.67764 | 26927 ft | 397 kts | 218° |